createdAt,value
2022-12-29T00:01:45.547Z,1.01
2022-12-29T00:04:51.151Z,0.96
2022-12-29T00:07:54.277Z,0.97
2022-12-29T00:10:57.436Z,0.99
2022-12-29T00:14:24.216Z,0.95
2022-12-29T00:17:31.100Z,0.99
2022-12-29T00:20:55.455Z,0.94
2022-12-29T00:24:17.092Z,0.96
2022-12-29T00:27:40.931Z,0.97
2022-12-29T00:31:03.267Z,1.02
2022-12-29T00:34:29.777Z,1.10
2022-12-29T00:37:51.784Z,1.22
2022-12-29T00:41:13.160Z,1.48
2022-12-29T00:44:18.761Z,1.45
2022-12-29T00:47:21.771Z,1.53
2022-12-29T00:50:25.315Z,1.50
2022-12-29T00:53:28.160Z,1.46
2022-12-29T00:56:31.317Z,1.39
2022-12-29T00:59:36.864Z,1.49
2022-12-29T01:02:39.959Z,1.38
2022-12-29T01:05:42.861Z,1.37
2022-12-29T01:08:46.149Z,1.38
2022-12-29T01:11:50.379Z,1.38
2022-12-29T01:14:53.691Z,1.30
2022-12-29T01:17:56.643Z,1.28
2022-12-29T01:21:05.982Z,1.18
2022-12-29T01:24:10.417Z,1.23
2022-12-29T01:27:13.773Z,1.18
2022-12-29T01:30:17.906Z,1.23
2022-12-29T01:33:22.573Z,1.26
2022-12-29T01:36:25.789Z,1.21
2022-12-29T01:39:29.547Z,1.17
2022-12-29T01:42:32.536Z,1.11
2022-12-29T01:45:36.798Z,1.09
2022-12-29T01:48:40.151Z,1.04
2022-12-29T01:51:50.010Z,0.90
2022-12-29T01:54:54.167Z,0.78
2022-12-29T01:58:01.365Z,0.77
2022-12-29T02:01:08.884Z,0.70
2022-12-29T02:04:13.659Z,0.67
2022-12-29T02:07:21.794Z,0.61
2022-12-29T02:10:27.780Z,0.57
2022-12-29T02:13:32.483Z,0.65
2022-12-29T02:16:46.070Z,0.61
2022-12-29T02:20:07.556Z,0.61
2022-12-29T02:23:38.903Z,0.56
2022-12-29T02:27:07.733Z,0.59
2022-12-29T02:30:48.299Z,0.53
2022-12-29T02:34:19.321Z,0.59
2022-12-29T02:37:29.508Z,0.60
2022-12-29T02:40:59.036Z,0.62
2022-12-29T02:44:06.685Z,0.50
2022-12-29T02:47:23.906Z,0.44
2022-12-29T02:50:32.132Z,0.45
2022-12-29T02:53:54.771Z,0.46
2022-12-29T02:56:58.122Z,0.54
2022-12-29T03:00:15.965Z,0.57
2022-12-29T03:03:50.494Z,0.55
2022-12-29T03:07:02.577Z,0.63
2022-12-29T03:10:29.404Z,0.78
2022-12-29T03:14:07.880Z,0.73
2022-12-29T03:17:24.340Z,0.71
2022-12-29T03:20:33.837Z,0.50
2022-12-29T03:23:40.050Z,0.62
2022-12-29T03:26:44.129Z,0.71
2022-12-29T03:29:54.079Z,0.72
2022-12-29T03:33:01.067Z,0.66
2022-12-29T03:36:08.702Z,0.55
2022-12-29T03:39:13.318Z,0.47
2022-12-29T03:42:20.998Z,0.51
2022-12-29T03:45:24.000Z,0.46
2022-12-29T03:48:28.421Z,0.48
2022-12-29T03:51:31.773Z,0.52
2022-12-29T03:54:35.653Z,0.33
2022-12-29T03:57:38.841Z,0.42
2022-12-29T04:00:42.406Z,0.38
2022-12-29T04:03:45.781Z,0.38
2022-12-29T04:06:48.830Z,0.39
2022-12-29T04:09:52.527Z,0.43
2022-12-29T04:12:55.705Z,0.37
2022-12-29T04:15:59.433Z,0.40
2022-12-29T04:19:03.429Z,0.38
2022-12-29T04:22:06.749Z,0.42
2022-12-29T04:25:10.881Z,0.53
2022-12-29T04:28:15.507Z,0.47
2022-12-29T04:31:19.179Z,0.49
2022-12-29T04:34:22.779Z,0.28
2022-12-29T04:37:27.291Z,0.30
2022-12-29T04:40:33.246Z,0.21
2022-12-29T04:43:38.506Z,0.22
2022-12-29T04:46:44.529Z,0.18
2022-12-29T04:49:47.801Z,0.16
2022-12-29T04:52:51.778Z,0.18
2022-12-29T04:55:54.956Z,0.18
2022-12-29T04:58:58.427Z,0.11
2022-12-29T05:02:01.605Z,0.16
2022-12-29T05:05:07.392Z,0.15
2022-12-29T05:08:11.260Z,0.19
2022-12-29T05:11:14.565Z,0.19
2022-12-29T05:14:18.149Z,0.13
2022-12-29T05:17:22.225Z,0.15
2022-12-29T05:20:25.279Z,0.21
2022-12-29T05:23:28.812Z,0.17
2022-12-29T05:26:32.162Z,0.18
2022-12-29T05:29:35.617Z,0.17
2022-12-29T05:32:39.177Z,0.25
2022-12-29T05:35:43.662Z,0.24
2022-12-29T05:38:46.906Z,0.10
2022-12-29T05:41:50.872Z,0.10
2022-12-29T05:44:55.766Z,-0.05
2022-12-29T05:47:59.144Z,-0.06
2022-12-29T05:51:02.371Z,-0.03
2022-12-29T05:54:06.320Z,-0.09
2022-12-29T05:57:11.012Z,-0.12
2022-12-29T06:00:16.160Z,-0.13
2022-12-29T06:03:20.307Z,-0.14
2022-12-29T06:06:23.616Z,-0.19
2022-12-29T06:09:27.307Z,-0.24
2022-12-29T06:12:30.698Z,-0.29
2022-12-29T06:15:34.578Z,-0.20
2022-12-29T06:18:38.935Z,-0.17
2022-12-29T06:21:44.389Z,-0.18
2022-12-29T06:24:47.447Z,-0.27
2022-12-29T06:27:51.156Z,-0.40
2022-12-29T06:30:54.170Z,-0.19
2022-12-29T06:33:57.815Z,-0.25
2022-12-29T06:37:00.769Z,-0.27
2022-12-29T06:40:07.538Z,-0.40
2022-12-29T06:43:11.607Z,-0.31
2022-12-29T06:46:16.389Z,-0.31
2022-12-29T06:49:20.410Z,-0.49
2022-12-29T06:52:25.207Z,-0.38
2022-12-29T06:55:29.380Z,-0.32
2022-12-29T06:58:32.528Z,-0.40
2022-12-29T07:01:37.146Z,-0.43
2022-12-29T07:04:41.695Z,-0.47
2022-12-29T07:07:45.337Z,-0.46
2022-12-29T07:10:48.659Z,-0.27
2022-12-29T07:14:05.222Z,-0.19
2022-12-29T07:17:08.664Z,-0.12
2022-12-29T07:20:11.775Z,-0.09
2022-12-29T07:23:15.443Z,0.05
2022-12-29T07:26:19.340Z,0.15
2022-12-29T07:29:22.718Z,0.25
2022-12-29T07:32:25.902Z,0.31
2022-12-29T07:35:29.504Z,0.27
2022-12-29T07:38:32.419Z,0.34
2022-12-29T07:41:36.063Z,0.35
2022-12-29T07:44:39.198Z,0.18
2022-12-29T07:47:43.984Z,0.28
2022-12-29T07:50:46.979Z,0.52
2022-12-29T07:53:50.179Z,0.56
2022-12-29T07:56:53.162Z,0.73
2022-12-29T07:59:56.754Z,0.87
2022-12-29T08:02:59.905Z,1.03
2022-12-29T08:06:04.179Z,1.12
2022-12-29T08:09:16.534Z,1.10
2022-12-29T08:12:23.163Z,1.20
2022-12-29T08:15:32.117Z,1.12
2022-12-29T08:18:35.754Z,1.05
2022-12-29T08:21:38.738Z,1.13
2022-12-29T08:24:42.112Z,1.18
2022-12-29T08:27:46.504Z,1.10
2022-12-29T08:30:54.893Z,1.32
2022-12-29T08:34:02.602Z,1.41
2022-12-29T08:37:06.299Z,1.49
2022-12-29T08:40:10.251Z,1.55
2022-12-29T08:43:18.468Z,1.51
2022-12-29T08:46:22.485Z,1.67
2022-12-29T08:49:26.497Z,1.73
2022-12-29T08:52:29.423Z,1.73
2022-12-29T08:55:33.430Z,1.64
2022-12-29T08:58:38.675Z,1.79
2022-12-29T09:01:41.997Z,1.89
2022-12-29T09:04:45.256Z,2.14
2022-12-29T09:07:49.944Z,2.34
2022-12-29T09:10:53.267Z,2.48
2022-12-29T09:13:56.534Z,2.57
2022-12-29T09:17:18.087Z,2.95
2022-12-29T09:20:22.727Z,2.89
2022-12-29T09:23:26.419Z,2.85
2022-12-29T09:26:29.860Z,3.06
2022-12-29T09:29:32.824Z,2.92
2022-12-29T09:32:41.974Z,3.07
2022-12-29T09:35:53.273Z,3.12
2022-12-29T09:38:56.528Z,3.32
2022-12-29T09:42:32.805Z,3.39
2022-12-29T09:45:36.104Z,3.29
2022-12-29T09:48:44.804Z,3.14
2022-12-29T09:51:52.467Z,3.04
2022-12-29T09:55:12.031Z,3.44
2022-12-29T09:58:33.051Z,3.56
2022-12-29T10:01:39.338Z,3.45
2022-12-29T10:04:44.540Z,3.39
2022-12-29T10:07:56.843Z,3.37
2022-12-29T10:11:31.094Z,3.53
2022-12-29T10:14:47.574Z,3.80
2022-12-29T10:17:55.893Z,3.99
2022-12-29T10:21:20.642Z,4.23
2022-12-29T10:24:23.921Z,4.30
2022-12-29T10:27:26.916Z,4.42
2022-12-29T10:30:30.806Z,4.42
2022-12-29T10:33:38.254Z,4.35
2022-12-29T10:36:45.005Z,4.55
2022-12-29T10:39:51.706Z,4.60
2022-12-29T10:42:57.312Z,4.81
2022-12-29T10:46:06.688Z,4.98
2022-12-29T10:49:21.658Z,5.27
2022-12-29T10:52:26.489Z,5.41
2022-12-29T10:55:36.664Z,5.44
2022-12-29T10:58:43.743Z,5.35
2022-12-29T11:02:01.605Z,5.20
2022-12-29T11:05:12.014Z,5.34
2022-12-29T11:08:23.642Z,5.38
2022-12-29T11:11:30.321Z,5.53
2022-12-29T11:14:33.647Z,5.56
2022-12-29T11:17:48.901Z,5.65
2022-12-29T11:21:00.310Z,5.95
2022-12-29T11:24:05.526Z,6.13
2022-12-29T11:27:24.056Z,6.60
2022-12-29T11:30:30.959Z,7.08
2022-12-29T11:33:36.208Z,7.40
2022-12-29T11:36:40.001Z,7.48
2022-12-29T11:39:53.221Z,7.59
2022-12-29T11:42:59.980Z,8.38
2022-12-29T11:46:06.513Z,9.22
2022-12-29T11:49:14.805Z,9.16
2022-12-29T11:52:23.640Z,9.73
2022-12-29T11:55:28.259Z,9.87
2022-12-29T11:58:35.533Z,10.17
2022-12-29T12:01:40.226Z,10.38
2022-12-29T12:04:43.633Z,11.65
2022-12-29T12:07:48.847Z,11.66
2022-12-29T12:10:58.824Z,11.11
2022-12-29T12:14:17.652Z,11.08
2022-12-29T12:17:36.225Z,11.16
2022-12-29T12:21:15.008Z,11.06
2022-12-29T12:24:37.940Z,11.02
2022-12-29T12:28:10.770Z,11.44
2022-12-29T12:31:23.793Z,11.47
2022-12-29T12:34:39.724Z,12.36
2022-12-29T12:37:42.991Z,13.20
2022-12-29T12:41:06.872Z,13.90
2022-12-29T12:44:16.283Z,14.88
2022-12-29T12:47:24.501Z,13.36
2022-12-29T12:51:22.301Z,13.90
2022-12-29T12:54:39.641Z,13.82
2022-12-29T12:57:51.896Z,13.63
2022-12-29T13:01:01.136Z,14.37
2022-12-29T13:04:38.053Z,13.99
2022-12-29T13:07:59.694Z,13.67
2022-12-29T13:11:15.621Z,14.68
2022-12-29T13:14:43.091Z,14.85
2022-12-29T13:18:15.634Z,15.23
2022-12-29T13:21:56.192Z,15.21
2022-12-29T13:25:05.085Z,14.85
2022-12-29T13:28:31.591Z,13.82
2022-12-29T13:31:46.948Z,13.80
2022-12-29T13:34:52.732Z,14.33
2022-12-29T13:38:02.108Z,14.14
2022-12-29T13:41:09.557Z,14.14
2022-12-29T13:44:18.848Z,14.24
2022-12-29T13:47:41.260Z,13.85
2022-12-29T13:50:54.444Z,13.03
2022-12-29T13:54:00.308Z,12.74
2022-12-29T13:57:31.695Z,12.73
2022-12-29T14:01:10.722Z,12.30
2022-12-29T14:04:15.787Z,11.31
2022-12-29T14:07:18.988Z,11.39
2022-12-29T14:10:48.734Z,11.10
2022-12-29T14:13:51.879Z,11.40
2022-12-29T14:16:55.400Z,11.34
2022-12-29T14:19:58.405Z,11.29
2022-12-29T14:23:17.201Z,10.85
2022-12-29T14:26:32.230Z,10.56
2022-12-29T14:29:45.592Z,10.25
2022-12-29T14:33:15.757Z,9.77
2022-12-29T14:36:35.822Z,9.10
2022-12-29T14:39:42.728Z,8.43
2022-12-29T14:42:49.721Z,7.87
2022-12-29T14:45:59.248Z,7.31
2022-12-29T14:49:03.461Z,6.63
2022-12-29T14:52:19.091Z,5.86
2022-12-29T14:55:32.393Z,5.43
2022-12-29T14:58:59.294Z,5.03
2022-12-29T15:02:15.476Z,4.52
2022-12-29T15:05:36.533Z,4.26
2022-12-29T15:08:51.437Z,4.04
2022-12-29T15:11:57.809Z,3.90
2022-12-29T15:15:02.559Z,3.66
2022-12-29T15:18:25.665Z,3.55
2022-12-29T15:21:31.668Z,3.37
2022-12-29T15:24:40.937Z,3.35
2022-12-29T15:28:05.950Z,3.23
2022-12-29T15:31:17.464Z,3.06
2022-12-29T15:34:22.363Z,3.07
2022-12-29T15:37:27.991Z,3.06
2022-12-29T15:40:33.729Z,2.97
2022-12-29T15:43:54.788Z,3.07
2022-12-29T15:46:58.258Z,3.09
2022-12-29T15:50:06.536Z,3.01
2022-12-29T15:53:20.732Z,2.99
2022-12-29T15:56:23.855Z,3.00
2022-12-29T15:59:32.655Z,2.92
2022-12-29T16:02:35.909Z,2.72
2022-12-29T16:05:41.164Z,2.86
2022-12-29T16:08:45.655Z,2.86
2022-12-29T16:11:53.004Z,2.88
2022-12-29T16:14:59.896Z,2.82
2022-12-29T16:18:03.191Z,2.69
2022-12-29T16:21:08.126Z,2.72
2022-12-29T16:24:26.028Z,2.56
2022-12-29T16:27:42.588Z,2.49
2022-12-29T16:30:45.908Z,2.21
2022-12-29T16:33:53.998Z,2.31
2022-12-29T16:36:58.964Z,2.16
2022-12-29T16:40:27.613Z,2.21
2022-12-29T16:43:32.392Z,1.92
2022-12-29T16:46:35.533Z,1.87
2022-12-29T16:49:41.415Z,1.94
2022-12-29T16:52:44.503Z,2.03
2022-12-29T16:55:49.089Z,1.97
2022-12-29T16:58:58.719Z,1.84
2022-12-29T17:02:06.994Z,1.87
2022-12-29T17:05:14.351Z,1.90
2022-12-29T17:08:25.078Z,1.96
2022-12-29T17:11:59.449Z,1.92
2022-12-29T17:15:16.617Z,1.92
2022-12-29T17:18:19.604Z,2.01
2022-12-29T17:21:24.075Z,2.05
2022-12-29T17:24:27.247Z,2.03
2022-12-29T17:27:40.122Z,1.90
2022-12-29T17:30:43.213Z,1.87
2022-12-29T17:33:50.311Z,1.52
2022-12-29T17:36:53.329Z,1.72
2022-12-29T17:39:58.326Z,1.70
2022-12-29T17:43:01.299Z,1.83
2022-12-29T17:46:06.795Z,1.86
2022-12-29T17:49:14.075Z,1.79
2022-12-29T17:52:18.023Z,1.83
2022-12-29T17:55:23.109Z,1.90
2022-12-29T17:58:28.752Z,1.91
2022-12-29T18:05:06.880Z,1.74
2022-12-29T18:08:11.178Z,1.72
2022-12-29T18:11:36.294Z,1.60
2022-12-29T18:14:39.199Z,1.29
2022-12-29T18:17:43.421Z,1.45
2022-12-29T18:20:47.627Z,1.30
2022-12-29T18:23:51.023Z,1.27
2022-12-29T18:26:54.041Z,1.39
2022-12-29T18:29:57.556Z,1.04
2022-12-29T18:33:00.720Z,1.12
2022-12-29T18:36:05.499Z,1.07
2022-12-29T18:39:08.704Z,1.05
2022-12-29T18:42:17.233Z,1.09
2022-12-29T18:45:22.950Z,1.11
2022-12-29T18:48:26.351Z,0.95
2022-12-29T18:51:29.632Z,1.04
2022-12-29T18:54:34.257Z,1.12
2022-12-29T18:57:37.558Z,1.09
2022-12-29T19:00:41.842Z,1.03
2022-12-29T19:03:45.166Z,1.00
2022-12-29T19:06:48.634Z,0.87
2022-12-29T19:09:52.758Z,0.99
2022-12-29T19:12:57.584Z,0.92
2022-12-29T19:16:00.803Z,0.92
2022-12-29T19:19:09.983Z,0.94
2022-12-29T19:22:14.742Z,1.00
2022-12-29T19:25:18.137Z,1.03
2022-12-29T19:28:36.653Z,1.02
2022-12-29T19:31:40.131Z,1.01
2022-12-29T19:34:44.124Z,0.98
2022-12-29T19:37:47.497Z,0.97
2022-12-29T19:40:51.531Z,0.92
2022-12-29T19:44:01.082Z,0.86
2022-12-29T19:47:04.836Z,0.82
2022-12-29T19:50:10.179Z,0.76
2022-12-29T19:53:21.092Z,0.66
2022-12-29T19:56:24.748Z,0.57
2022-12-29T19:59:28.235Z,0.56
2022-12-29T20:02:34.307Z,0.57
2022-12-29T20:05:39.488Z,0.52
2022-12-29T20:08:43.035Z,0.61
2022-12-29T20:11:46.359Z,0.60
2022-12-29T20:14:49.383Z,0.62
2022-12-29T20:21:18.576Z,0.49
2022-12-29T20:24:21.878Z,0.53
2022-12-29T20:27:24.838Z,0.49
2022-12-29T20:30:27.807Z,0.51
2022-12-29T20:33:32.063Z,0.50
2022-12-29T20:36:37.284Z,0.50
2022-12-29T20:39:42.279Z,0.41
2022-12-29T20:42:45.612Z,0.39
2022-12-29T20:45:49.172Z,0.37
2022-12-29T20:48:54.139Z,0.44
2022-12-29T20:52:06.306Z,0.47
2022-12-29T20:55:10.386Z,0.43
2022-12-29T20:58:23.641Z,0.39
2022-12-29T21:01:27.929Z,0.34
2022-12-29T21:04:50.033Z,0.27
2022-12-29T21:07:55.678Z,0.32
2022-12-29T21:10:58.953Z,0.32
2022-12-29T21:14:02.275Z,0.21
2022-12-29T21:17:06.529Z,0.28
2022-12-29T21:20:20.322Z,0.32
2022-12-29T21:23:23.597Z,0.26
2022-12-29T21:26:26.879Z,0.44
2022-12-29T21:29:29.863Z,0.41
2022-12-29T21:32:34.321Z,0.35
2022-12-29T21:35:40.629Z,0.26
2022-12-29T21:38:45.263Z,0.30
2022-12-29T21:41:48.239Z,0.22
2022-12-29T21:45:15.246Z,0.22
2022-12-29T21:48:21.376Z,0.24
2022-12-29T21:51:43.131Z,0.20
2022-12-29T21:55:01.044Z,0.17
2022-12-29T21:58:22.761Z,0.24
2022-12-29T22:01:47.328Z,0.23
2022-12-29T22:05:09.268Z,0.23
2022-12-29T22:08:31.026Z,0.24
2022-12-29T22:11:52.989Z,0.21
2022-12-29T22:14:55.960Z,0.20
2022-12-29T22:18:00.052Z,0.24
2022-12-29T22:21:10.663Z,0.26
2022-12-29T22:24:13.947Z,0.39
2022-12-29T22:27:16.908Z,0.44
2022-12-29T22:30:20.708Z,0.43
2022-12-29T22:33:25.117Z,0.47
2022-12-29T22:36:30.310Z,0.49
2022-12-29T22:39:33.338Z,0.45
2022-12-29T22:42:39.085Z,0.53
2022-12-29T22:45:43.123Z,0.47
2022-12-29T22:48:46.572Z,0.41
2022-12-29T22:51:49.642Z,0.42
2022-12-29T22:54:52.872Z,0.41
2022-12-29T22:57:55.741Z,0.43
2022-12-29T23:00:59.129Z,0.39
2022-12-29T23:04:35.455Z,0.36
2022-12-29T23:07:27.041Z,0.39
2022-12-29T23:10:30.410Z,0.43
2022-12-29T23:13:34.639Z,0.45
2022-12-29T23:16:39.032Z,0.47
2022-12-29T23:19:42.280Z,0.34
2022-12-29T23:22:45.257Z,0.46
2022-12-29T23:25:48.497Z,0.42
2022-12-29T23:28:57.840Z,0.29
2022-12-29T23:32:03.038Z,0.15
2022-12-29T23:35:06.975Z,0.34
2022-12-29T23:38:10.164Z,0.40
2022-12-29T23:41:13.183Z,0.40
2022-12-29T23:44:16.547Z,0.37
2022-12-29T23:47:19.487Z,0.30
2022-12-29T23:50:22.996Z,0.32
2022-12-29T23:53:25.898Z,0.37
2022-12-29T23:56:29.376Z,0.35
2022-12-29T23:59:32.344Z,0.34
